Seinäjoki, Suomi

24. elokuuta 2017 klo 13:36 (EEST) (GMT +0300)
Seinäjoki | | Change Station

Kork 259 ft 62.76 °N, 22.82 °E | Updated 12 minutes ago

Täysin pilvistä
Täysin pilvistä
58.8 °F
Tuntuu kuin 58.8 °F
N
1.9
Tuuli Suunnaltaan vaihteleva Tuuli ilmansuunnasta Luode
Gusts 6.2 mph

Tänään
Korkea -- | Matala -- °F
--% Sateen mahd.
Eilen
Korkea -- | Matala -- °F
Precip. -- tuumaa
Ilmanpaine 29.77 tuumaa
Näkyvyys 6.2 mailia
Pilviä Harvoja pilviä 3400 ft
Täysin pilvistä 3900 ft
Kastepiste 49 °F
Ilmankosteus 69%
Sademäärä 0.00 tuumaa
Lumensyvyys Ei saatavilla
5:53 AM 9:06 PM
Kasvava sirppi, 9% visible
METAR EFSI 241020Z AUTO 34008KT 310V030 9999 FEW034 OVC039 14/06 Q1008
Ilmanpaine 29.77 tuumaa
Näkyvyys 6.2 mailia
Pilviä Harvoja pilviä 3400 ft
Täysin pilvistä 3900 ft
Kastepiste 49 °F
Ilmankosteus 69%
Sademäärä 0.00 tuumaa
Lumensyvyys Ei saatavilla
5:53 AM 9:06 PM
Kasvava sirppi, 9% visible
METAR EFSI 241020Z AUTO 34008KT 310V030 9999 FEW034 OVC039 14/06 Q1008

Get Severe Weather Alerts

Thanks for signing up!

Be on the lookout for a verification email in your inbox.

You'll start receiving the daily forecast at 6 AM.

×

10-Day Weather Forecast

×

Almanac

Tähtitiede

Aug. 24, 2017 Nousuaika Laskuaika
Valoisa aika
Porvarillinen hämärä
Nauttinen hämärä
Astronominen hämärä
Kuu
Näkyvän valon pituus
Päivän pituus
Tomorrow will be .
, % of the Moon is Illuminated

Tämän päivän ennätykset

Country Highs Country Lows

Community

WunderPhotos

Category 6

Welcome to Category 6. This is the collective home for Weather Underground's featured writeups by Dr. Jeff Masters (right), Bob Henson (left), Chris Burt, and other regular contributors.

Nearby

Ilmanlaatu

  Ilmanlaatu AQ Index Pollutant
Not available.

Lumensyvyys

Station Depth Korkeus

Maanjäristysaktiivisuus

Paikkakunta Distance Mag. Time & Date
Minimum magnitude displayed is 2.5.

Coastal Water Temperatures

Paikka Lämpötila

Stations

Lähimmät sääasemat

Aseman sijainti Lämpötila Tuulen hyytävyys Kastepiste Ilmankosteus Tuuli Precip. Kork Päivitetty Tyyppi